Time;durP1;ratioP1;P1;durP2;ratioP2;P2;SDS_P1;SDS_P2;PMS_P1;PMS_P2;Temp;Humidity;BMP_temperature;BMP_pressure;BME280_temperature;BME280_humidity;BME280_pressure;Samples;Min_cycle;Max_cycle;Signal;HPM_P1;HPM_P2
2021/11/19 00:01:31;;;;;;;23.10;4.40;;;13.50;99.90;;;;;;5066676;28;20220;-71
2021/11/19 00:03:57;;;;;;;18.58;3.75;;;13.50;99.90;;;;;;5103236;28;20220;-71
2021/11/19 00:06:23;;;;;;;19.30;4.00;;;13.50;99.90;;;;;;5101007;28;20181;-68
2021/11/19 00:08:50;;;;;;;16.88;3.53;;;13.50;99.90;;;;;;5100741;28;20198;-69
2021/11/19 00:11:19;;;;;;;17.98;3.35;;;13.50;99.90;;;;;;5083348;28;20188;-70
2021/11/19 00:13:47;;;;;;;17.58;3.30;;;13.50;99.90;;;;;;5099028;28;20220;-71
2021/11/19 00:16:14;;;;;;;16.50;3.50;;;13.40;99.90;;;;;;5085588;28;20296;-70
2021/11/19 00:18:41;;;;;;;16.02;3.58;;;13.50;99.90;;;;;;5103939;28;20237;-70
2021/11/19 00:21:08;;;;;;;18.50;3.30;;;13.50;99.90;;;;;;5082505;28;20569;-71
2021/11/19 00:23:34;;;;;;;20.15;3.42;;;13.50;99.90;;;;;;5103444;28;20214;-71
2021/11/19 00:26:00;;;;;;;32.55;3.85;;;13.50;99.90;;;;;;5101905;28;20296;-71
2021/11/19 00:28:27;;;;;;;15.70;3.72;;;13.40;99.90;;;;;;5103978;28;20195;-72
2021/11/19 00:30:52;;;;;;;14.32;3.30;;;13.50;99.90;;;;;;5101739;28;20983;-71
2021/11/19 00:33:19;;;;;;;17.52;3.60;;;13.50;99.90;;;;;;5104601;28;20247;-70
2021/11/19 00:35:46;;;;;;;15.50;3.65;;;13.50;99.90;;;;;;5084053;28;20189;-70
2021/11/19 00:38:14;;;;;;;19.35;3.63;;;13.50;99.90;;;;;;5103777;28;20197;-70
2021/11/19 00:40:55;;;;;;;19.90;3.97;;;13.50;99.90;;;;;;5084762;28;20220;-71
2021/11/19 00:43:21;;;;;;;18.15;3.70;;;13.50;99.90;;;;;;5103179;28;20205;-69
2021/11/19 00:45:48;;;;;;;12.98;3.60;;;13.50;99.90;;;;;;5102457;28;20188;-70
2021/11/19 00:48:14;;;;;;;25.67;3.78;;;13.50;99.90;;;;;;5106490;28;20200;-71
2021/11/19 00:50:48;;;;;;;21.83;3.63;;;13.50;99.90;;;;;;5088230;28;20193;-68
2021/11/19 00:53:14;;;;;;;21.00;3.70;;;13.50;99.90;;;;;;5108083;28;20210;-72
2021/11/19 00:55:40;;;;;;;20.52;3.55;;;13.50;99.90;;;;;;5063581;28;20645;-69
2021/11/19 00:58:07;;;;;;;19.70;4.35;;;13.60;99.90;;;;;;5088475;28;20193;-70
2021/11/19 01:00:42;;;;;;;18.90;3.53;;;13.60;99.90;;;;;;5076021;28;20181;-70
2021/11/19 01:03:09;;;;;;;15.85;3.60;;;13.50;99.90;;;;;;5086626;28;20185;-71
2021/11/19 01:05:35;;;;;;;21.17;4.22;;;13.60;99.90;;;;;;5088895;28;20189;-70
2021/11/19 01:08:01;;;;;;;18.20;3.78;;;13.60;99.90;;;;;;5105310;28;20191;-70
2021/11/19 01:10:32;;;;;;;14.15;3.53;;;13.60;99.90;;;;;;5085743;28;20189;-72
2021/11/19 01:12:58;;;;;;;24.23;4.10;;;13.60;99.90;;;;;;5087844;28;20204;-73
2021/11/19 01:15:30;;;;;;;22.50;4.03;;;13.60;99.90;;;;;;5108009;28;20193;-72
2021/11/19 01:18:00;;;;;;;18.08;3.75;;;13.60;99.90;;;;;;5102351;28;20185;-70
2021/11/19 01:20:38;;;;;;;22.92;4.53;;;13.60;99.90;;;;;;5086902;28;20714;-72
2021/11/19 01:23:10;;;;;;;20.75;4.30;;;13.60;99.90;;;;;;5102075;28;20181;-70
2021/11/19 01:25:41;;;;;;;24.15;4.35;;;13.60;99.90;;;;;;5088354;28;20238;-73
2021/11/19 01:28:07;;;;;;;19.13;4.45;;;13.60;99.90;;;;;;5082100;28;20399;-72
2021/11/19 01:30:37;;;;;;;21.90;4.43;;;14.10;99.90;;;;;;5086549;28;20396;-71
2021/11/19 01:33:04;;;;;;;21.48;4.82;;;14.50;99.90;;;;;;5069706;28;20436;-71
2021/11/19 01:35:49;;;;;;;19.80;4.75;;;14.70;99.90;;;;;;5083860;28;20400;-70
2021/11/19 01:38:29;;;;;;;23.70;5.25;;;14.80;99.90;;;;;;5084891;28;20966;-71
2021/11/19 01:41:14;;;;;;;24.67;4.90;;;14.80;99.90;;;;;;5086102;28;20480;-72
2021/11/19 01:43:41;;;;;;;23.90;5.22;;;14.90;99.90;;;;;;5087444;28;20427;-72
2021/11/19 01:46:13;;;;;;;20.95;5.00;;;15.00;99.90;;;;;;5086734;28;20458;-71
2021/11/19 01:48:42;;;;;;;22.67;4.57;;;15.00;99.90;;;;;;5085864;28;20396;-72
2021/11/19 01:51:25;;;;;;;19.05;4.63;;;15.00;99.90;;;;;;5069692;28;20415;-72
2021/11/19 01:54:04;;;;;;;23.55;5.28;;;15.00;99.90;;;;;;5067519;28;20499;-71
2021/11/19 01:56:52;;;;;;;18.95;4.90;;;15.10;99.90;;;;;;5084086;28;20974;-69
2021/11/19 01:59:32;;;;;;;21.35;4.95;;;15.10;99.90;;;;;;5101426;28;20405;-71
2021/11/19 02:02:06;;;;;;;22.65;5.35;;;15.10;99.90;;;;;;5081785;28;20783;-71
2021/11/19 02:04:37;;;;;;;26.00;5.63;;;15.10;99.90;;;;;;5077060;28;20417;-72
2021/11/19 02:07:34;;;;;;;29.17;5.03;;;15.10;99.90;;;;;;5084230;28;20428;-72
2021/11/19 02:10:25;;;;;;;22.42;5.43;;;15.10;99.90;;;;;;5085769;28;20415;-71
2021/11/19 02:13:16;;;;;;;26.73;5.70;;;15.10;99.90;;;;;;5086032;28;20442;-71
2021/11/19 02:15:53;;;;;;;20.38;5.25;;;15.10;99.90;;;;;;5085737;28;20400;-72
2021/11/19 02:18:37;;;;;;;22.02;5.53;;;15.10;99.90;;;;;;5086227;28;20432;-73
2021/11/19 02:21:20;;;;;;;22.40;5.70;;;15.10;99.90;;;;;;5097912;28;20392;-72
2021/11/19 02:24:06;;;;;;;17.05;5.22;;;15.10;99.90;;;;;;5087175;28;20408;-71
2021/11/19 02:26:51;;;;;;;23.27;5.25;;;15.10;99.90;;;;;;5084939;28;20496;-70
2021/11/19 02:29:19;;;;;;;20.67;4.97;;;15.10;99.90;;;;;;5087159;28;20427;-70
2021/11/19 02:31:51;;;;;;;23.95;5.47;;;15.10;99.90;;;;;;5086427;28;20491;-70
2021/11/19 02:34:19;;;;;;;22.05;5.28;;;15.10;99.90;;;;;;5100449;28;20532;-71
2021/11/19 02:36:57;;;;;;;15.65;5.03;;;15.10;99.90;;;;;;5084558;28;20461;-71
2021/11/19 02:39:33;;;;;;;21.23;5.45;;;15.10;99.90;;;;;;5078392;28;20424;-72
2021/11/19 02:42:17;;;;;;;22.45;5.57;;;15.20;99.90;;;;;;5082542;28;20455;-72
2021/11/19 02:44:45;;;;;;;20.27;5.10;;;15.20;99.90;;;;;;5063861;28;20463;-71
2021/11/19 02:47:17;;;;;;;20.43;5.33;;;15.20;99.90;;;;;;5082670;28;20836;-70
2021/11/19 02:49:44;;;;;;;17.90;5.53;;;15.20;99.90;;;;;;5080185;28;20409;-71
2021/11/19 02:52:22;;;;;;;24.42;5.68;;;15.20;99.90;;;;;;5082638;28;20413;-71
2021/11/19 02:54:49;;;;;;;20.73;5.70;;;15.10;99.90;;;;;;5082463;28;20471;-70
2021/11/19 02:57:16;;;;;;;24.40;5.57;;;15.20;99.90;;;;;;5082009;28;20516;-70
2021/11/19 02:59:42;;;;;;;24.25;5.82;;;15.20;99.90;;;;;;5084043;28;20442;-70
2021/11/19 03:02:14;;;;;;;19.85;5.88;;;15.20;99.90;;;;;;5081066;28;20417;-70
2021/11/19 03:05:04;;;;;;;22.40;5.88;;;15.20;99.90;;;;;;5079520;28;20445;-71
2021/11/19 03:07:30;;;;;;;25.17;6.15;;;15.10;99.90;;;;;;5078580;28;20457;-71
2021/11/19 03:10:08;;;;;;;20.10;6.03;;;15.10;99.90;;;;;;5065136;28;20449;-70
2021/11/19 03:12:36;;;;;;;22.27;6.55;;;15.10;99.90;;;;;;5083291;28;20418;-71
2021/11/19 03:15:08;;;;;;;22.92;6.45;;;15.10;99.90;;;;;;5081896;28;20405;-71
2021/11/19 03:17:34;;;;;;;26.05;6.97;;;15.10;99.90;;;;;;5081057;28;20993;-70
2021/11/19 03:20:00;;;;;;;21.45;6.88;;;15.10;99.90;;;;;;5065787;28;20488;-71
2021/11/19 03:22:28;;;;;;;28.33;6.90;;;15.10;99.90;;;;;;5080732;28;20511;-71
2021/11/19 03:24:54;;;;;;;22.38;6.95;;;15.10;99.90;;;;;;5073754;28;20409;-72
2021/11/19 03:27:21;;;;;;;20.67;7.30;;;15.10;99.90;;;;;;5081279;28;20421;-70
2021/11/19 03:29:57;;;;;;;24.88;7.47;;;15.10;99.90;;;;;;5079231;28;20429;-70
2021/11/19 03:32:26;;;;;;;20.48;6.95;;;15.10;99.90;;;;;;5081620;28;20521;-71
2021/11/19 03:34:53;;;;;;;28.20;7.45;;;15.10;99.90;;;;;;5065962;28;20532;-72
2021/11/19 03:37:19;;;;;;;23.48;7.47;;;15.10;99.90;;;;;;5077550;28;20410;-71
2021/11/19 03:39:45;;;;;;;24.67;7.55;;;15.10;99.90;;;;;;5075287;28;21278;-71
2021/11/19 03:42:13;;;;;;;22.52;7.43;;;15.00;99.90;;;;;;5071884;28;20419;-71
2021/11/19 03:44:44;;;;;;;23.23;7.40;;;15.10;99.90;;;;;;5069791;28;20407;-72
2021/11/19 03:47:21;;;;;;;24.20;7.93;;;15.10;99.90;;;;;;5074833;28;20948;-71
2021/11/19 03:49:50;;;;;;;23.53;7.33;;;15.10;99.90;;;;;;5077616;28;20414;-70
2021/11/19 03:52:30;;;;;;;19.87;7.20;;;15.00;99.90;;;;;;5081899;28;21214;-70
2021/11/19 03:54:59;;;;;;;24.73;7.80;;;15.00;99.90;;;;;;5077314;28;20494;-72
2021/11/19 03:57:26;;;;;;;26.65;7.85;;;15.00;99.90;;;;;;5092867;28;20490;-71
2021/11/19 03:59:54;;;;;;;26.55;7.78;;;15.00;99.90;;;;;;5077187;28;20416;-71
2021/11/19 04:02:26;;;;;;;24.80;7.63;;;15.00;99.90;;;;;;5095226;28;20449;-72
2021/11/19 04:04:53;;;;;;;26.33;7.53;;;15.00;99.90;;;;;;5072918;28;20426;-70
2021/11/19 04:07:20;;;;;;;24.92;8.15;;;15.00;99.90;;;;;;5076211;28;20405;-72
2021/11/19 04:09:47;;;;;;;22.23;7.53;;;15.00;99.90;;;;;;5079687;28;20415;-72
2021/11/19 04:12:16;;;;;;;22.65;7.20;;;15.00;99.90;;;;;;5074486;28;20419;-71
2021/11/19 04:14:43;;;;;;;23.73;8.13;;;15.10;99.90;;;;;;5081940;28;20454;-71
2021/11/19 04:17:09;;;;;;;22.17;7.23;;;15.10;99.90;;;;;;5078907;28;20436;-71
2021/11/19 04:19:35;;;;;;;24.93;7.90;;;15.10;99.90;;;;;;5079100;28;20401;-71
2021/11/19 04:22:06;;;;;;;24.30;8.18;;;15.10;99.90;;;;;;5080876;28;20513;-72
2021/11/19 04:24:39;;;;;;;23.35;7.25;;;15.10;99.90;;;;;;5077756;28;20451;-70
2021/11/19 04:27:08;;;;;;;24.55;7.95;;;15.10;99.90;;;;;;5077959;28;20445;-72
2021/11/19 04:29:51;;;;;;;25.83;8.10;;;15.10;99.90;;;;;;5077275;28;20993;-71
2021/11/19 04:32:24;;;;;;;25.33;7.68;;;15.00;99.90;;;;;;5080797;28;20406;-71
2021/11/19 04:34:54;;;;;;;27.17;7.85;;;15.10;99.90;;;;;;5081577;28;20414;-72
2021/11/19 04:37:20;;;;;;;21.75;7.60;;;15.10;99.90;;;;;;5079244;28;20417;-71
2021/11/19 04:39:46;;;;;;;20.25;7.45;;;15.10;99.90;;;;;;5078970;28;20410;-72
2021/11/19 04:42:12;;;;;;;25.60;8.13;;;15.10;99.90;;;;;;5081100;28;20429;-71
2021/11/19 04:44:39;;;;;;;21.27;7.32;;;15.00;99.90;;;;;;5080831;28;20898;-71
2021/11/19 04:47:05;;;;;;;22.25;7.38;;;15.00;99.90;;;;;;5079073;28;20416;-69
2021/11/19 04:49:31;;;;;;;24.75;7.35;;;15.00;99.90;;;;;;5064495;28;20405;-70
2021/11/19 04:51:58;;;;;;;21.40;7.20;;;15.00;99.90;;;;;;5080323;28;20596;-70
2021/11/19 04:54:24;;;;;;;25.15;7.35;;;15.00;99.90;;;;;;5080797;28;20457;-69
2021/11/19 04:56:52;;;;;;;20.60;6.82;;;15.00;99.90;;;;;;5078082;28;20456;-69
2021/11/19 04:59:21;;;;;;;22.40;7.10;;;15.00;99.90;;;;;;5078496;28;20405;-70
2021/11/19 05:01:50;;;;;;;20.77;6.70;;;15.00;99.90;;;;;;5076059;28;20449;-70
2021/11/19 05:04:24;;;;;;;24.00;6.90;;;15.00;99.90;;;;;;5075192;28;20425;-68
2021/11/19 05:06:50;;;;;;;21.17;6.55;;;15.10;99.90;;;;;;5077176;28;20410;-70
2021/11/19 05:09:16;;;;;;;24.60;6.80;;;15.00;99.90;;;;;;5074481;28;20777;-71
2021/11/19 05:11:51;;;;;;;23.80;6.63;;;15.00;99.90;;;;;;5077361;28;20758;-69
2021/11/19 05:14:20;;;;;;;24.52;6.15;;;15.10;99.90;;;;;;5076607;28;20406;-70
2021/11/19 05:16:46;;;;;;;19.77;6.13;;;15.10;99.90;;;;;;5077848;28;20552;-71
2021/11/19 05:19:12;;;;;;;20.67;6.30;;;15.00;99.90;;;;;;5080122;28;20410;-70
2021/11/19 05:21:38;;;;;;;19.88;6.25;;;15.00;99.90;;;;;;5080245;28;20451;-71
2021/11/19 05:24:08;;;;;;;24.23;6.60;;;15.00;99.90;;;;;;5079239;28;20462;-69
2021/11/19 05:26:37;;;;;;;22.05;6.20;;;15.00;99.90;;;;;;5079716;28;20421;-71
2021/11/19 05:29:03;;;;;;;20.52;6.25;;;15.00;99.90;;;;;;5073647;28;20418;-71
2021/11/19 05:31:29;;;;;;;22.52;6.35;;;15.00;99.90;;;;;;5082804;28;20966;-71
2021/11/19 05:33:55;;;;;;;23.83;6.10;;;15.00;99.90;;;;;;5083353;28;20410;-72
2021/11/19 05:36:22;;;;;;;22.08;6.05;;;15.00;99.90;;;;;;5083790;28;20410;-70
2021/11/19 05:38:49;;;;;;;22.45;6.05;;;15.00;99.90;;;;;;5080770;28;20815;-72
2021/11/19 05:41:22;;;;;;;22.83;6.00;;;15.10;99.90;;;;;;5077551;28;20758;-71
2021/11/19 05:43:51;;;;;;;22.05;5.63;;;15.00;99.90;;;;;;5084667;28;21333;-71
2021/11/19 05:46:41;;;;;;;20.33;5.72;;;15.00;99.90;;;;;;5075726;28;22806;-69
2021/11/19 05:49:17;;;;;;;21.13;5.30;;;15.00;99.90;;;;;;5065810;28;20510;-69
2021/11/19 05:51:46;;;;;;;19.15;5.75;;;15.00;99.90;;;;;;5065565;28;20395;-72
2021/11/19 05:54:16;;;;;;;21.77;5.90;;;15.10;99.90;;;;;;5079541;28;20401;-70
2021/11/19 05:56:43;;;;;;;19.55;5.45;;;15.00;99.90;;;;;;5084242;28;20406;-69
2021/11/19 05:59:10;;;;;;;21.05;5.88;;;15.10;99.90;;;;;;5084707;28;20487;-69
2021/11/19 06:02:04;;;;;;;18.93;6.03;;;15.00;99.90;;;;;;5082661;28;20413;-69
2021/11/19 06:04:43;;;;;;;23.85;5.85;;;15.00;99.90;;;;;;5083021;28;20467;-68
2021/11/19 06:07:41;;;;;;;22.48;5.97;;;15.00;99.90;;;;;;5073563;28;20604;-70
2021/11/19 06:10:12;;;;;;;23.30;6.10;;;15.00;99.90;;;;;;5085716;28;20410;-69
2021/11/19 06:12:48;;;;;;;20.83;6.28;;;15.00;99.90;;;;;;5082899;28;20421;-69
2021/11/19 06:15:25;;;;;;;20.50;6.10;;;15.00;99.90;;;;;;5081192;28;20469;-70
2021/11/19 06:17:55;;;;;;;23.90;6.43;;;15.00;99.90;;;;;;5081067;28;20476;-71
2021/11/19 06:20:36;;;;;;;20.47;6.33;;;15.00;99.90;;;;;;5066253;28;21076;-70
2021/11/19 06:23:12;;;;;;;22.80;6.10;;;15.00;99.90;;;;;;5099342;28;20407;-70
2021/11/19 06:25:40;;;;;;;21.13;5.93;;;15.00;99.90;;;;;;5093441;28;20942;-70
2021/11/19 06:28:11;;;;;;;21.63;6.30;;;15.00;99.90;;;;;;5067580;28;20415;-70
2021/11/19 06:30:38;;;;;;;25.45;6.20;;;15.00;99.90;;;;;;5081257;28;20415;-71
2021/11/19 06:33:04;;;;;;;22.80;5.90;;;15.00;99.90;;;;;;5084191;28;20441;-71
2021/11/19 06:35:31;;;;;;;21.13;5.68;;;15.00;99.90;;;;;;5079185;28;20768;-70
2021/11/19 06:37:58;;;;;;;19.42;5.25;;;14.90;99.90;;;;;;5060386;28;20398;-71
2021/11/19 06:40:36;;;;;;;21.08;6.00;;;15.00;99.90;;;;;;5083449;28;20412;-70
2021/11/19 06:43:15;;;;;;;28.02;5.85;;;14.90;99.90;;;;;;5097984;28;20415;-68
2021/11/19 06:45:50;;;;;;;26.50;6.32;;;14.90;99.90;;;;;;5106092;28;20415;-71
2021/11/19 06:48:34;;;;;;;21.55;6.65;;;14.90;99.90;;;;;;5083579;28;20479;-71
2021/11/19 06:51:20;;;;;;;22.60;5.85;;;14.90;99.90;;;;;;5100924;28;20538;-68
2021/11/19 06:53:56;;;;;;;21.88;5.90;;;14.90;99.90;;;;;;5069750;28;20445;-69
2021/11/19 06:56:41;;;;;;;23.92;5.55;;;14.90;99.90;;;;;;5078991;28;20429;-71
2021/11/19 06:59:20;;;;;;;25.52;6.35;;;14.80;99.90;;;;;;5086711;28;20445;-71
2021/11/19 07:01:46;;;;;;;20.33;5.95;;;14.80;99.90;;;;;;5086168;28;20404;-68
2021/11/19 07:04:12;;;;;;;24.23;5.75;;;14.80;99.90;;;;;;5104432;28;20411;-71
2021/11/19 07:06:39;;;;;;;19.90;5.57;;;14.80;99.90;;;;;;5087309;28;20450;-69
2021/11/19 07:09:06;;;;;;;22.23;6.70;;;14.80;99.90;;;;;;5084692;28;20431;-69
2021/11/19 07:11:32;;;;;;;21.27;5.68;;;14.80;99.90;;;;;;5085518;28;20468;-69
2021/11/19 07:13:58;;;;;;;21.83;5.80;;;14.80;99.90;;;;;;5084509;28;20829;-68
2021/11/19 07:16:27;;;;;;;24.97;6.23;;;14.80;99.90;;;;;;5074408;28;20441;-68
2021/11/19 07:18:54;;;;;;;21.27;5.63;;;14.80;99.90;;;;;;5081887;28;20400;-70
2021/11/19 07:21:21;;;;;;;21.43;5.50;;;14.80;99.90;;;;;;5085524;28;20469;-71
2021/11/19 07:23:47;;;;;;;21.17;4.70;;;14.80;99.90;;;;;;5082383;28;20423;-70
2021/11/19 07:26:14;;;;;;;18.02;5.15;;;14.80;99.90;;;;;;5085384;28;20388;-70
2021/11/19 07:28:40;;;;;;;20.55;4.70;;;14.80;99.90;;;;;;5085412;28;20449;-70
2021/11/19 07:31:24;;;;;;;19.85;4.35;;;14.80;99.90;;;;;;5075709;28;21328;-70
2021/11/19 07:34:09;;;;;;;19.38;4.53;;;14.80;99.90;;;;;;5103257;28;20489;-69
2021/11/19 07:36:56;;;;;;;20.35;5.22;;;14.80;99.90;;;;;;5066461;28;20492;-70
2021/11/19 07:39:34;;;;;;;19.50;4.80;;;14.80;99.90;;;;;;5084309;28;20432;-70
2021/11/19 07:42:17;;;;;;;20.80;4.60;;;14.90;99.90;;;;;;5103026;28;20424;-71
2021/11/19 07:44:45;;;;;;;20.30;4.40;;;14.90;99.90;;;;;;5085635;28;20465;-70
2021/11/19 07:47:34;;;;;;;18.17;4.30;;;15.00;99.90;;;;;;5095188;28;20438;-72
2021/11/19 07:50:02;;;;;;;21.60;4.30;;;15.00;99.90;;;;;;5074772;28;20972;-70
2021/11/19 07:52:28;;;;;;;21.85;4.20;;;15.00;99.90;;;;;;5064025;28;20931;-72
2021/11/19 07:54:54;;;;;;;17.95;3.90;;;15.10;99.90;;;;;;5102189;28;20472;-71
2021/11/19 07:57:23;;;;;;;21.20;3.83;;;15.10;99.90;;;;;;5068476;28;20396;-70
2021/11/19 07:59:49;;;;;;;16.67;3.83;;;15.10;99.90;;;;;;5080844;28;21011;-70
2021/11/19 08:02:15;;;;;;;18.13;3.78;;;15.10;99.90;;;;;;5085376;28;20404;-69
2021/11/19 08:04:41;;;;;;;17.97;3.40;;;15.10;99.90;;;;;;5086143;28;20953;-70
2021/11/19 08:07:20;;;;;;;13.05;3.05;;;15.10;99.90;;;;;;5086622;28;20453;-70
2021/11/19 08:09:51;;;;;;;16.33;3.55;;;15.10;99.90;;;;;;5104905;28;20495;-70
2021/11/19 08:12:50;;;;;;;18.73;3.30;;;15.10;99.90;;;;;;5096520;28;20415;-71
2021/11/19 08:15:26;;;;;;;13.00;2.78;;;15.20;99.90;;;;;;5070597;28;20473;-70
2021/11/19 08:17:55;;;;;;;16.35;3.17;;;15.20;99.90;;;;;;5081116;28;20413;-70
2021/11/19 08:20:37;;;;;;;17.77;3.33;;;15.20;99.90;;;;;;5080255;28;20416;-71
2021/11/19 08:23:13;;;;;;;19.17;3.47;;;15.20;99.90;;;;;;5085257;28;20458;-71
2021/11/19 08:25:39;;;;;;;20.38;4.07;;;15.20;99.90;;;;;;5077280;28;20391;-71
2021/11/19 08:28:07;;;;;;;20.17;4.30;;;15.10;99.90;;;;;;5085239;28;20423;-71
2021/11/19 08:30:37;;;;;;;20.25;4.43;;;15.20;99.90;;;;;;5103818;28;20392;-72
2021/11/19 08:33:05;;;;;;;20.85;3.85;;;15.20;99.90;;;;;;5103827;28;20471;-72
2021/11/19 08:35:34;;;;;;;23.17;4.78;;;15.20;99.90;;;;;;5083702;28;20496;-71
2021/11/19 08:37:59;;;;;;;22.13;4.43;;;15.20;99.90;;;;;;5101779;28;20406;-71
2021/11/19 08:40:26;;;;;;;21.95;4.43;;;15.20;99.90;;;;;;5085365;28;20907;-71
2021/11/19 08:42:52;;;;;;;21.77;4.10;;;15.20;99.90;;;;;;5084457;28;20424;-72
2021/11/19 08:45:19;;;;;;;16.30;4.10;;;15.30;99.90;;;;;;5101070;28;20457;-70
2021/11/19 08:47:47;;;;;;;26.05;4.30;;;15.30;99.90;;;;;;5084578;28;20961;-72
2021/11/19 08:50:15;;;;;;;16.75;4.20;;;15.40;99.90;;;;;;5084013;28;20491;-71
2021/11/19 08:52:41;;;;;;;20.63;4.00;;;15.40;99.90;;;;;;5082557;28;20809;-72
2021/11/19 08:55:09;;;;;;;17.93;3.97;;;15.40;99.90;;;;;;5102301;28;20404;-71
2021/11/19 08:57:35;;;;;;;19.33;4.32;;;15.50;99.90;;;;;;5101448;28;20396;-70
2021/11/19 09:00:03;;;;;;;17.83;3.90;;;15.50;99.90;;;;;;5093457;28;20459;-70
2021/11/19 09:02:29;;;;;;;22.00;4.30;;;15.50;99.90;;;;;;5093979;28;20511;-70
2021/11/19 09:04:55;;;;;;;19.63;4.22;;;15.40;99.90;;;;;;5104915;28;20914;-71
2021/11/19 09:07:21;;;;;;;18.40;3.60;;;15.50;99.90;;;;;;5104112;28;20526;-71
2021/11/19 09:09:48;;;;;;;18.58;3.75;;;15.60;99.90;;;;;;5086996;28;20439;-70
2021/11/19 09:12:15;;;;;;;24.92;3.88;;;15.70;99.90;;;;;;5103776;28;20461;-70
2021/11/19 09:14:41;;;;;;;18.13;3.70;;;15.70;99.90;;;;;;5105510;28;20721;-68
2021/11/19 09:17:21;;;;;;;19.20;3.90;;;15.70;99.90;;;;;;5103376;28;20411;-69
2021/11/19 09:20:12;;;;;;;17.17;3.90;;;15.70;99.90;;;;;;5104603;27;20806;-69
2021/11/19 09:22:51;;;;;;;20.87;3.80;;;15.80;99.90;;;;;;5103567;27;20487;-69
2021/11/19 09:25:19;;;;;;;17.05;3.30;;;16.30;99.90;;;;;;5104713;28;20895;-70
2021/11/19 09:27:46;;;;;;;15.55;3.08;;;17.20;99.90;;;;;;5105967;27;20443;-70
2021/11/19 09:30:15;;;;;;;19.20;2.80;;;18.40;99.00;;;;;;5104261;27;20412;-70
2021/11/19 09:32:47;;;;;;;14.60;2.88;;;19.50;96.30;;;;;;5102700;28;20421;-71
2021/11/19 09:35:13;;;;;;;10.38;2.55;;;20.40;93.40;;;;;;5104801;27;20395;-72
2021/11/19 09:37:40;;;;;;;11.57;2.63;;;21.10;91.40;;;;;;5088788;28;20903;-72
2021/11/19 09:40:08;;;;;;;12.50;2.40;;;21.80;88.30;;;;;;5106750;28;20439;-69
2021/11/19 09:42:56;;;;;;;12.60;2.50;;;22.30;84.30;;;;;;5070621;28;20434;-72
2021/11/19 09:45:29;;;;;;;11.73;2.42;;;22.50;81.60;;;;;;5106974;28;20415;-71
2021/11/19 09:47:57;;;;;;;13.48;2.63;;;22.80;79.30;;;;;;5103733;27;20427;-71
2021/11/19 09:50:44;;;;;;;13.35;2.70;;;23.20;76.90;;;;;;5102489;28;20722;-69
2021/11/19 09:53:16;;;;;;;12.77;2.58;;;23.40;75.10;;;;;;5103353;27;20503;-72
2021/11/19 09:55:58;;;;;;;16.45;3.05;;;23.80;72.90;;;;;;5105874;27;20470;-69
2021/11/19 09:58:33;;;;;;;11.77;2.50;;;24.20;70.70;;;;;;5105504;27;20420;-72
2021/11/19 10:01:12;;;;;;;13.05;2.72;;;24.70;68.00;;;;;;5085275;28;20404;-70
2021/11/19 10:04:05;;;;;;;11.10;2.30;;;25.00;65.60;;;;;;5087475;28;20419;-71
2021/11/19 10:06:43;;;;;;;12.50;2.37;;;25.20;64.30;;;;;;5101883;27;20886;-70
2021/11/19 10:09:25;;;;;;;11.35;2.40;;;25.30;62.60;;;;;;5104386;28;20415;-71
2021/11/19 10:12:21;;;;;;;12.00;2.40;;;24.90;62.70;;;;;;5105381;28;20416;-69
2021/11/19 10:15:06;;;;;;;11.32;2.40;;;24.30;65.20;;;;;;5106211;28;20893;-71
2021/11/19 10:18:07;;;;;;;14.30;2.67;;;23.40;68.90;;;;;;5104258;27;20412;-71
2021/11/19 10:20:50;;;;;;;16.13;2.80;;;22.60;72.30;;;;;;5103734;27;20436;-71
2021/11/19 10:23:28;;;;;;;19.67;2.60;;;21.90;75.40;;;;;;5096585;28;20412;-72
2021/11/19 10:26:06;;;;;;;13.47;2.63;;;21.20;78.70;;;;;;5097834;28;20420;-71
2021/11/19 10:28:39;;;;;;;15.90;2.70;;;20.70;82.20;;;;;;5099452;28;20466;-71
2021/11/19 10:31:10;;;;;;;15.80;3.00;;;20.50;83.30;;;;;;5094579;28;20771;-70
2021/11/19 10:33:42;;;;;;;16.20;2.70;;;20.20;84.50;;;;;;5098101;28;20958;-70
2021/11/19 10:36:40;;;;;;;11.70;2.80;;;19.90;85.70;;;;;;5081506;28;20403;-71
2021/11/19 10:39:59;;;;;;;14.63;2.80;;;19.70;87.50;;;;;;5101377;28;20408;-70
2021/11/19 10:42:55;;;;;;;13.98;2.60;;;19.60;88.40;;;;;;5013006;28;20516;-69
2021/11/19 10:45:48;;;;;;;12.97;2.57;;;19.50;89.40;;;;;;5084327;28;20487;-71
2021/11/19 10:48:35;;;;;;;15.90;2.70;;;19.40;89.40;;;;;;5099503;28;20436;-70
2021/11/19 10:51:04;;;;;;;14.75;2.65;;;19.40;89.80;;;;;;5100451;28;20423;-70
2021/11/19 10:54:01;;;;;;;17.17;3.05;;;19.40;89.70;;;;;;5102077;28;20445;-72
2021/11/19 10:56:53;;;;;;;17.95;2.72;;;19.70;89.30;;;;;;5096825;28;20488;-71
2021/11/19 10:59:19;;;;;;;16.20;2.85;;;19.90;88.00;;;;;;5083610;28;20961;-70
2021/11/19 11:02:22;;;;;;;12.60;2.50;;;20.10;87.70;;;;;;5097092;28;20400;-69
2021/11/19 11:04:55;;;;;;;13.40;2.58;;;20.50;86.00;;;;;;5086101;28;20806;-70
2021/11/19 11:07:35;;;;;;;17.25;3.13;;;20.80;84.20;;;;;;5100597;28;21311;-72
2021/11/19 11:10:28;;;;;;;12.13;2.45;;;21.10;83.20;;;;;;5104046;28;20412;-72
2021/11/19 11:12:54;;;;;;;14.25;2.60;;;21.60;80.90;;;;;;5099813;28;20416;-71
2021/11/19 11:15:29;;;;;;;19.87;2.93;;;21.90;78.80;;;;;;5103369;28;20415;-72
2021/11/19 11:18:10;;;;;;;16.73;2.60;;;22.20;77.20;;;;;;5097683;28;20415;-70
2021/11/19 11:20:52;;;;;;;12.50;2.60;;;22.70;75.20;;;;;;5103022;28;20850;-71
2021/11/19 11:23:38;;;;;;;15.82;3.10;;;23.20;72.80;;;;;;5095612;28;20436;-70
2021/11/19 11:26:42;;;;;;;13.35;2.38;;;23.50;70.30;;;;;;5099338;28;21140;-69
2021/11/19 11:29:08;;;;;;;16.85;2.20;;;23.70;69.30;;;;;;5060908;28;20414;-71
2021/11/19 11:32:05;;;;;;;14.27;2.43;;;23.70;68.40;;;;;;5097934;28;20414;-71
2021/11/19 11:34:55;;;;;;;14.37;2.20;;;23.80;67.70;;;;;;5100904;28;20416;-71
2021/11/19 11:37:37;;;;;;;17.60;2.57;;;23.90;66.30;;;;;;5100774;28;20968;-71
2021/11/19 11:40:35;;;;;;;16.38;2.55;;;23.90;66.20;;;;;;5095976;28;20444;-70
2021/11/19 11:43:36;;;;;;;11.02;2.53;;;23.90;65.60;;;;;;5098454;28;20470;-71
2021/11/19 11:46:21;;;;;;;12.65;2.17;;;23.90;64.60;;;;;;5036255;28;20444;-71
2021/11/19 11:49:08;;;;;;;12.10;2.40;;;23.90;64.60;;;;;;5099430;28;20498;-70
2021/11/19 11:51:55;;;;;;;11.85;2.42;;;23.90;64.60;;;;;;5082202;28;20403;-71
2021/11/19 11:54:37;;;;;;;13.35;2.50;;;24.10;63.70;;;;;;5085347;28;21146;-70
2021/11/19 11:57:29;;;;;;;13.30;2.33;;;24.30;62.70;;;;;;5083624;28;20416;-70
2021/11/19 12:00:18;;;;;;;15.60;2.65;;;24.30;62.60;;;;;;5100137;28;20407;-72
2021/11/19 12:03:21;;;;;;;8.70;2.10;;;24.20;62.30;;;;;;5100790;28;20412;-73
2021/11/19 12:05:56;;;;;;;15.10;4.32;;;24.30;61.80;;;;;;5098201;28;20430;-72
2021/11/19 12:08:47;;;;;;;13.38;2.60;;;24.10;62.40;;;;;;5096867;28;20787;-72
2021/11/19 12:11:47;;;;;;;10.90;2.30;;;23.80;63.20;;;;;;5094694;28;20835;-71
2021/11/19 12:14:12;;;;;;;15.27;2.28;;;23.50;64.20;;;;;;5097856;28;20417;-72
2021/11/19 12:17:22;;;;;;;12.93;2.43;;;23.30;65.20;;;;;;5101365;28;20411;-70
2021/11/19 12:19:56;;;;;;;11.10;2.30;;;23.00;66.40;;;;;;5099872;28;20806;-71
2021/11/19 12:22:43;;;;;;;15.05;2.60;;;22.90;67.10;;;;;;5098926;28;20419;-71
2021/11/19 12:25:38;;;;;;;11.82;2.70;;;23.00;67.60;;;;;;5100218;28;20838;-72
2021/11/19 12:28:14;;;;;;;15.60;2.67;;;23.20;67.00;;;;;;5100301;28;20400;-72
2021/11/19 12:30:54;;;;;;;12.93;2.67;;;23.50;65.90;;;;;;5083638;28;20991;-72
2021/11/19 12:33:34;;;;;;;14.30;2.40;;;23.60;65.20;;;;;;5096043;28;20433;-72
2021/11/19 12:36:23;;;;;;;14.68;2.40;;;23.60;64.80;;;;;;5082517;28;20459;-70
2021/11/19 12:38:56;;;;;;;11.20;2.30;;;23.50;64.70;;;;;;5103560;28;20474;-73
2021/11/19 12:41:53;;;;;;;12.50;2.13;;;23.50;65.10;;;;;;5102415;28;20466;-72
2021/11/19 12:44:44;;;;;;;13.85;2.67;;;23.40;65.10;;;;;;5105541;28;20446;-72
2021/11/19 12:47:39;;;;;;;11.70;2.00;;;23.30;65.50;;;;;;5104461;28;20481;-70
2021/11/19 12:50:27;;;;;;;13.23;2.45;;;23.00;65.10;;;;;;5048012;28;20418;-70
2021/11/19 12:53:26;;;;;;;12.30;2.30;;;22.80;65.70;;;;;;5099769;28;20496;-71
2021/11/19 12:56:13;;;;;;;13.30;2.33;;;22.80;66.60;;;;;;5102025;28;20423;-72
2021/11/19 12:58:44;;;;;;;10.43;2.13;;;22.90;65.90;;;;;;5079097;28;20410;-71
2021/11/19 13:01:21;;;;;;;14.07;2.13;;;22.90;65.30;;;;;;5101281;28;20447;-72
2021/11/19 13:03:52;;;;;;;13.10;2.03;;;23.00;64.70;;;;;;5106411;28;21213;-72
2021/11/19 13:07:09;;;;;;;10.70;1.95;;;22.70;64.60;;;;;;5101602;28;20498;-71
2021/11/19 13:09:49;;;;;;;12.95;2.35;;;22.40;65.00;;;;;;5005779;28;20520;-71
2021/11/19 13:12:22;;;;;;;13.85;2.15;;;21.80;67.60;;;;;;5020961;28;20896;-71
2021/11/19 13:15:09;;;;;;;9.97;2.53;;;21.40;69.30;;;;;;5069906;28;20454;-69